createdAt,value
2018-05-21T00:01:53.815Z,2.90
2018-05-21T00:04:22.075Z,2.60
2018-05-21T00:06:50.370Z,2.60
2018-05-21T00:09:17.867Z,2.50
2018-05-21T00:11:45.393Z,2.80
2018-05-21T00:14:12.911Z,3.10
2018-05-21T00:16:40.466Z,2.80
2018-05-21T00:19:07.950Z,2.80
2018-05-21T00:21:36.289Z,3.00
2018-05-21T00:24:04.498Z,2.45
2018-05-21T00:26:32.762Z,2.90
2018-05-21T00:29:00.289Z,2.70
2018-05-21T00:31:27.901Z,3.53
2018-05-21T00:33:56.422Z,2.97
2018-05-21T00:36:23.938Z,3.00
2018-05-21T00:38:52.198Z,3.30
2018-05-21T00:41:19.726Z,3.30
2018-05-21T00:43:47.214Z,3.33
2018-05-21T00:46:14.724Z,3.47
2018-05-21T00:48:42.210Z,3.33
2018-05-21T00:51:09.738Z,3.20
2018-05-21T00:53:37.232Z,2.80
2018-05-21T00:56:04.834Z,3.27
2018-05-21T00:58:32.351Z,3.17
2018-05-21T01:00:59.839Z,2.92
2018-05-21T01:03:28.128Z,2.90
2018-05-21T01:05:55.619Z,3.30
2018-05-21T01:08:23.147Z,3.55
2018-05-21T01:10:50.638Z,2.70
2018-05-21T01:13:18.142Z,3.00
2018-05-21T01:15:46.425Z,2.80
2018-05-21T01:18:14.686Z,2.80
2018-05-21T01:20:42.983Z,3.20
2018-05-21T01:23:11.266Z,3.00
2018-05-21T01:25:38.761Z,2.90
2018-05-21T01:28:06.259Z,2.80
2018-05-21T01:30:34.531Z,2.85
2018-05-21T01:33:02.027Z,2.92
2018-05-21T01:35:29.539Z,2.43
2018-05-21T01:37:57.046Z,2.80
2018-05-21T01:40:24.556Z,2.70
2018-05-21T01:42:52.064Z,2.83
2018-05-21T01:45:19.579Z,3.00
2018-05-21T01:47:47.868Z,2.90
2018-05-21T01:50:16.136Z,3.00
2018-05-21T01:52:44.526Z,2.87
2018-05-21T01:55:12.789Z,2.75
2018-05-21T01:57:41.178Z,2.83
2018-05-21T02:00:09.435Z,2.10
2018-05-21T02:02:37.690Z,2.50
2018-05-21T02:05:05.313Z,2.78
2018-05-21T02:07:32.811Z,2.60
2018-05-21T02:10:00.318Z,2.80
2018-05-21T02:12:27.843Z,2.30
2018-05-21T02:14:55.339Z,2.20
2018-05-21T02:17:22.854Z,2.40
2018-05-21T02:19:50.367Z,2.70
2018-05-21T02:22:17.903Z,2.90
2018-05-21T02:24:46.174Z,2.58
2018-05-21T02:27:14.434Z,2.40
2018-05-21T02:29:42.714Z,2.60
2018-05-21T02:32:11.001Z,2.25
2018-05-21T02:34:39.256Z,2.55
2018-05-21T02:37:06.743Z,2.40
2018-05-21T02:39:34.275Z,2.90
2018-05-21T02:42:01.766Z,2.30
2018-05-21T02:44:29.279Z,2.50
2018-05-21T02:46:57.547Z,2.67
2018-05-21T02:49:25.076Z,2.50
2018-05-21T02:51:52.578Z,2.40
2018-05-21T02:54:20.095Z,2.25
2018-05-21T02:56:47.595Z,2.55
2018-05-21T02:59:15.179Z,2.22
2018-05-21T03:01:43.558Z,2.50
2018-05-21T03:04:11.830Z,2.50
2018-05-21T03:06:40.114Z,2.40
2018-05-21T03:09:07.627Z,2.37
2018-05-21T03:11:35.130Z,2.67
2018-05-21T03:14:02.622Z,2.40
2018-05-21T03:16:30.142Z,2.80
2018-05-21T03:18:58.407Z,2.78
2018-05-21T03:21:26.695Z,2.70
2018-05-21T03:23:54.982Z,2.30
2018-05-21T03:26:22.488Z,2.30
2018-05-21T03:28:50.000Z,2.70
2018-05-21T03:31:17.502Z,2.62
2018-05-21T03:33:45.015Z,2.30
2018-05-21T03:36:12.568Z,2.40
2018-05-21T03:38:40.065Z,2.50
2018-05-21T03:41:07.575Z,2.70
2018-05-21T03:43:35.827Z,2.70
2018-05-21T03:46:03.347Z,2.50
2018-05-21T03:48:30.838Z,2.50
2018-05-21T03:50:58.359Z,2.15
2018-05-21T03:53:25.846Z,2.60
2018-05-21T03:55:53.363Z,2.80
2018-05-21T03:58:32.818Z,2.33
2018-05-21T04:01:12.150Z,2.57
2018-05-21T04:03:51.628Z,2.30
2018-05-21T04:06:19.239Z,2.50
2018-05-21T04:08:46.730Z,2.30
2018-05-21T04:11:14.236Z,2.70
2018-05-21T04:13:41.744Z,2.40
2018-05-21T04:16:09.357Z,2.50
2018-05-21T04:18:36.864Z,2.50
2018-05-21T04:21:04.390Z,2.67
2018-05-21T04:23:31.894Z,2.40
2018-05-21T04:25:59.404Z,2.50
2018-05-21T04:28:26.903Z,2.22
2018-05-21T04:30:54.410Z,2.20
2018-05-21T04:33:21.911Z,2.50
2018-05-21T04:35:49.437Z,2.47
2018-05-21T04:38:16.979Z,2.70
2018-05-21T04:40:44.507Z,2.30
2018-05-21T04:43:12.026Z,2.22
2018-05-21T04:45:40.287Z,2.20
2018-05-21T04:48:07.796Z,2.50
2018-05-21T04:50:35.287Z,2.40
2018-05-21T04:53:04.534Z,2.60
2018-05-21T04:55:32.027Z,2.23
2018-05-21T04:58:00.331Z,2.43
2018-05-21T05:00:27.835Z,2.60
2018-05-21T05:02:55.457Z,2.60
2018-05-21T05:05:22.986Z,3.00
2018-05-21T05:07:50.563Z,2.70
2018-05-21T05:10:18.076Z,2.70
2018-05-21T05:12:45.687Z,2.30
2018-05-21T05:15:13.200Z,2.80
2018-05-21T05:17:40.687Z,2.60
2018-05-21T05:20:09.066Z,3.07
2018-05-21T05:22:37.445Z,2.70
2018-05-21T05:25:05.726Z,2.70
2018-05-21T05:27:33.241Z,2.62
2018-05-21T05:30:00.846Z,3.00
2018-05-21T05:32:28.366Z,2.80
2018-05-21T05:34:55.862Z,3.00
2018-05-21T05:37:23.387Z,3.20
2018-05-21T05:39:50.978Z,3.20
2018-05-21T05:42:18.473Z,2.67
2018-05-21T05:44:46.107Z,3.00
2018-05-21T05:47:13.610Z,3.10
2018-05-21T05:49:41.131Z,2.90
2018-05-21T05:52:08.627Z,2.83
2018-05-21T05:54:37.642Z,2.60
2018-05-21T05:57:05.942Z,2.70
2018-05-21T05:59:33.439Z,2.70
2018-05-21T06:02:00.951Z,3.20
2018-05-21T06:04:29.211Z,3.17
2018-05-21T06:06:56.722Z,3.40
2018-05-21T06:09:24.219Z,2.83
2018-05-21T06:11:52.494Z,2.90
2018-05-21T06:14:20.089Z,3.45
2018-05-21T06:16:47.607Z,3.03
2018-05-21T06:19:15.210Z,2.90
2018-05-21T06:21:42.699Z,3.20
2018-05-21T06:24:10.206Z,3.50
2018-05-21T06:26:38.467Z,3.22
2018-05-21T06:29:05.983Z,3.40
2018-05-21T06:31:33.507Z,3.65
2018-05-21T06:34:01.864Z,3.95
2018-05-21T06:36:29.316Z,3.45
2018-05-21T06:38:56.827Z,3.58
2018-05-21T06:41:24.318Z,3.47
2018-05-21T06:43:51.835Z,3.47
2018-05-21T06:46:19.335Z,3.33
2018-05-21T06:48:46.942Z,3.90
2018-05-21T06:51:14.437Z,3.58
2018-05-21T06:53:41.953Z,4.22
2018-05-21T06:56:09.467Z,3.80
2018-05-21T06:58:36.967Z,4.20
2018-05-21T07:01:04.466Z,3.80
2018-05-21T07:03:32.003Z,4.30
2018-05-21T07:05:59.490Z,4.40
2018-05-21T07:08:27.002Z,4.10
2018-05-21T07:10:54.494Z,3.87
2018-05-21T07:13:22.015Z,4.20
2018-05-21T07:15:50.271Z,4.30
2018-05-21T07:18:17.865Z,4.20
2018-05-21T07:20:45.304Z,3.83
2018-05-21T07:23:13.587Z,4.40
2018-05-21T07:25:41.846Z,4.60
2018-05-21T07:28:10.140Z,4.00
2018-05-21T07:30:37.652Z,4.50
2018-05-21T07:33:05.176Z,4.15
2018-05-21T07:35:32.703Z,4.25
2018-05-21T07:38:00.971Z,4.07
2018-05-21T07:40:29.254Z,4.30
2018-05-21T07:42:57.512Z,4.57
2018-05-21T07:45:25.103Z,4.60
2018-05-21T07:47:52.626Z,4.60
2018-05-21T07:50:20.879Z,4.60
2018-05-21T07:52:48.371Z,4.40
2018-05-21T07:55:16.654Z,4.25
2018-05-21T07:57:44.940Z,4.30
2018-05-21T08:00:13.194Z,4.30
2018-05-21T08:02:40.786Z,4.50
2018-05-21T08:05:08.393Z,4.35
2018-05-21T08:07:35.867Z,4.53
2018-05-21T08:10:03.388Z,5.00
2018-05-21T08:12:30.882Z,4.73
2018-05-21T08:14:58.474Z,4.27
2018-05-21T08:17:26.048Z,4.75
2018-05-21T08:19:53.542Z,4.68
2018-05-21T08:22:21.055Z,4.37
2018-05-21T08:24:48.575Z,4.70
2018-05-21T08:27:16.857Z,4.43
2018-05-21T08:29:44.403Z,4.77
2018-05-21T08:32:11.887Z,4.30
2018-05-21T08:34:40.183Z,4.30
2018-05-21T08:37:07.687Z,4.30
2018-05-21T08:39:35.208Z,4.90
2018-05-21T08:42:02.705Z,4.78
2018-05-21T08:44:30.995Z,4.40
2018-05-21T08:46:58.583Z,4.68
2018-05-21T08:49:26.866Z,4.80
2018-05-21T08:51:55.130Z,4.40
2018-05-21T08:54:23.389Z,4.40
2018-05-21T08:56:50.892Z,4.20
2018-05-21T08:59:18.402Z,4.30
2018-05-21T09:01:45.903Z,4.62
2018-05-21T09:04:13.450Z,4.12
2018-05-21T09:06:40.988Z,4.50
2018-05-21T09:09:08.487Z,4.60
2018-05-21T09:11:35.987Z,4.43
2018-05-21T09:14:03.487Z,4.53
2018-05-21T09:16:30.980Z,4.18
2018-05-21T09:18:58.514Z,4.25
2018-05-21T09:21:26.063Z,4.00
2018-05-21T09:23:53.615Z,4.07
2018-05-21T09:26:21.890Z,4.10
2018-05-21T09:28:49.383Z,4.20
2018-05-21T09:31:16.895Z,3.80
2018-05-21T09:33:45.158Z,4.20
2018-05-21T09:36:12.670Z,4.10
2018-05-21T09:38:40.217Z,4.00
2018-05-21T09:41:07.708Z,4.30
2018-05-21T09:43:35.204Z,4.07
2018-05-21T09:46:03.455Z,4.00
2018-05-21T09:48:30.968Z,4.10
2018-05-21T09:50:58.457Z,4.00
2018-05-21T09:53:25.946Z,4.20
2018-05-21T09:55:54.211Z,3.87
2018-05-21T09:58:21.715Z,4.35
2018-05-21T10:00:55.074Z,3.70
2018-05-21T10:03:23.330Z,4.20
2018-05-21T10:05:50.836Z,4.28
2018-05-21T10:08:18.342Z,3.95
2018-05-21T10:10:45.831Z,4.10
2018-05-21T10:13:14.121Z,4.10
2018-05-21T10:15:41.623Z,3.90
2018-05-21T10:18:09.127Z,3.90
2018-05-21T10:20:37.391Z,3.83
2018-05-21T10:23:05.699Z,3.50
2018-05-21T10:25:33.199Z,3.83
2018-05-21T10:28:00.691Z,3.70
2018-05-21T10:30:28.981Z,3.30
2018-05-21T10:32:56.466Z,3.75
2018-05-21T10:35:23.991Z,3.78
2018-05-21T10:37:52.262Z,4.07
2018-05-21T10:40:20.523Z,3.55
2018-05-21T10:42:48.819Z,3.60
2018-05-21T10:45:17.083Z,4.05
2018-05-21T10:47:45.362Z,3.80
2018-05-21T10:50:13.610Z,3.60
2018-05-21T10:52:41.206Z,3.67
2018-05-21T10:55:08.723Z,3.90
2018-05-21T10:57:36.233Z,3.62
2018-05-21T11:00:03.735Z,3.60
2018-05-21T11:02:31.233Z,3.30
2018-05-21T11:04:59.495Z,3.33
2018-05-21T11:07:26.995Z,3.70
2018-05-21T11:09:54.527Z,3.30
2018-05-21T11:12:22.787Z,3.65
2018-05-21T11:14:50.368Z,3.55
2018-05-21T11:17:17.878Z,3.90
2018-05-21T11:19:45.372Z,3.50
2018-05-21T11:22:13.663Z,3.40
2018-05-21T11:24:41.180Z,3.35
2018-05-21T11:27:08.664Z,3.70
2018-05-21T11:29:36.923Z,3.97
2018-05-21T11:32:04.564Z,3.50
2018-05-21T11:34:32.043Z,4.10
2018-05-21T11:36:59.560Z,3.80
2018-05-21T11:39:27.098Z,3.50
2018-05-21T11:41:54.599Z,4.00
2018-05-21T11:44:22.115Z,3.40
2018-05-21T11:46:49.618Z,4.30
2018-05-21T11:49:17.120Z,3.72
2018-05-21T11:51:45.421Z,4.50
2018-05-21T11:54:12.919Z,3.90
2018-05-21T11:56:40.413Z,3.55
2018-05-21T11:59:07.914Z,3.30
2018-05-21T12:01:35.412Z,3.95
2018-05-21T12:04:03.695Z,3.80
2018-05-21T12:06:31.951Z,3.42
2018-05-21T12:08:59.544Z,3.40
2018-05-21T12:11:27.048Z,3.65
2018-05-21T12:13:54.550Z,3.90
2018-05-21T12:16:22.818Z,3.33
2018-05-21T12:18:51.080Z,3.90
2018-05-21T12:21:18.594Z,3.50
2018-05-21T12:23:46.103Z,3.55
2018-05-21T12:26:14.391Z,3.03
2018-05-21T12:28:42.652Z,3.35
2018-05-21T12:31:10.931Z,3.80
2018-05-21T12:33:38.446Z,3.50
2018-05-21T12:36:05.950Z,3.80
2018-05-21T12:38:34.224Z,3.20
2018-05-21T12:41:01.738Z,3.67
2018-05-21T12:43:29.262Z,3.30
2018-05-21T12:45:56.761Z,3.30
2018-05-21T12:48:24.384Z,3.33
2018-05-21T12:50:51.886Z,3.10
2018-05-21T12:53:19.369Z,3.50
2018-05-21T12:55:47.632Z,3.25
2018-05-21T12:58:15.135Z,3.37
2018-05-21T13:00:42.682Z,3.40
2018-05-21T13:03:10.946Z,3.40
2018-05-21T13:05:39.211Z,3.08
2018-05-21T13:08:06.710Z,2.80
2018-05-21T13:10:34.206Z,3.50
2018-05-21T13:13:01.702Z,3.05
2018-05-21T13:15:29.991Z,3.10
2018-05-21T13:17:57.491Z,2.90
2018-05-21T13:20:24.992Z,3.10
2018-05-21T13:22:53.255Z,3.10
2018-05-21T13:25:20.751Z,3.20
2018-05-21T13:27:48.331Z,3.20
2018-05-21T13:30:15.819Z,3.20
2018-05-21T13:32:43.329Z,3.30
2018-05-21T13:35:10.834Z,3.08
2018-05-21T13:37:38.431Z,2.53
2018-05-21T13:40:05.978Z,2.77
2018-05-21T13:42:34.241Z,2.80
2018-05-21T13:45:01.734Z,2.80
2018-05-21T13:47:29.239Z,2.70
2018-05-21T13:49:56.752Z,3.10
2018-05-21T13:52:24.267Z,2.57
2018-05-21T13:54:51.858Z,2.90
2018-05-21T13:57:20.127Z,3.05
2018-05-21T13:59:48.398Z,3.00
2018-05-21T14:02:16.650Z,2.50
2018-05-21T14:04:44.152Z,2.80
2018-05-21T14:07:11.652Z,2.80
2018-05-21T14:09:39.142Z,2.47
2018-05-21T14:12:07.425Z,3.00
2018-05-21T14:14:35.689Z,2.50
2018-05-21T14:17:03.190Z,2.72
2018-05-21T14:19:30.720Z,2.80
2018-05-21T14:21:59.100Z,2.40
2018-05-21T14:24:27.363Z,2.60
2018-05-21T14:26:55.626Z,2.70
2018-05-21T14:29:23.141Z,2.53
2018-05-21T14:31:50.655Z,2.90
2018-05-21T14:34:18.931Z,2.90
2018-05-21T14:36:46.419Z,2.50
2018-05-21T14:39:13.931Z,2.55
2018-05-21T14:41:41.449Z,2.10
2018-05-21T14:44:08.964Z,2.45
2018-05-21T14:46:37.230Z,2.40
2018-05-21T14:49:04.738Z,2.40
2018-05-21T14:51:32.288Z,2.67
2018-05-21T14:53:59.782Z,2.67
2018-05-21T14:56:27.286Z,2.30
2018-05-21T14:58:54.795Z,2.42
2018-05-21T15:01:22.416Z,2.70
2018-05-21T15:03:49.963Z,2.62
2018-05-21T15:06:18.301Z,2.40
2018-05-21T15:08:45.795Z,2.45
2018-05-21T15:11:14.107Z,2.70
2018-05-21T15:13:41.604Z,2.37
2018-05-21T15:16:09.117Z,2.72
2018-05-21T15:18:36.646Z,2.25
2018-05-21T15:21:04.903Z,2.80
2018-05-21T15:23:32.486Z,2.95
2018-05-21T15:26:00.751Z,2.50
2018-05-21T15:28:29.035Z,2.72
2018-05-21T15:30:57.290Z,2.78
2018-05-21T15:33:24.868Z,3.17
2018-05-21T15:35:53.138Z,2.70
2018-05-21T15:38:21.400Z,2.60
2018-05-21T15:40:48.888Z,2.70
2018-05-21T15:43:16.401Z,2.90
2018-05-21T15:45:43.907Z,2.50
2018-05-21T15:48:11.437Z,2.60
2018-05-21T15:50:39.030Z,2.75
2018-05-21T15:53:06.531Z,3.08
2018-05-21T15:55:34.044Z,3.10
2018-05-21T15:58:01.532Z,2.80
2018-05-21T16:00:29.043Z,2.62
2018-05-21T16:02:57.326Z,2.50
2018-05-21T16:05:25.624Z,2.60
2018-05-21T16:07:53.126Z,2.45
2018-05-21T16:10:20.622Z,2.40
2018-05-21T16:12:48.191Z,2.62
2018-05-21T16:15:15.702Z,2.30
2018-05-21T16:17:43.226Z,2.67
2018-05-21T16:20:10.769Z,2.45
2018-05-21T16:22:38.275Z,2.72
2018-05-21T16:25:05.877Z,2.70
2018-05-21T16:27:33.358Z,2.73
2018-05-21T16:30:00.881Z,2.60
2018-05-21T16:32:28.371Z,2.67
2018-05-21T16:34:55.854Z,2.30
2018-05-21T16:37:23.470Z,3.08
2018-05-21T16:39:50.970Z,2.47
2018-05-21T16:42:18.462Z,2.40
2018-05-21T16:44:46.759Z,2.60
2018-05-21T16:47:14.255Z,2.50
2018-05-21T16:49:41.768Z,2.70
2018-05-21T16:52:10.047Z,2.40
2018-05-21T16:54:38.317Z,2.62
2018-05-21T16:57:06.570Z,2.83
2018-05-21T16:59:34.075Z,2.77
2018-05-21T17:02:01.576Z,2.23
2018-05-21T17:04:29.092Z,2.72
2018-05-21T17:06:56.682Z,2.65
2018-05-21T17:09:24.876Z,2.37
2018-05-21T17:11:52.391Z,2.58
2018-05-21T17:14:19.914Z,2.10
2018-05-21T17:16:48.183Z,2.33
2018-05-21T17:19:16.438Z,2.30
2018-05-21T17:21:43.943Z,2.30
2018-05-21T17:24:11.443Z,2.50
2018-05-21T17:26:38.935Z,2.40
2018-05-21T17:29:07.198Z,2.40
2018-05-21T17:31:35.459Z,2.60
2018-05-21T17:34:02.984Z,2.30
2018-05-21T17:36:30.470Z,2.50
2018-05-21T17:38:57.958Z,2.60
2018-05-21T17:41:26.232Z,3.17
2018-05-21T17:43:53.727Z,2.70
2018-05-21T17:46:21.231Z,2.40
2018-05-21T17:48:48.726Z,2.23
2018-05-21T17:51:16.237Z,2.10
2018-05-21T17:53:43.739Z,2.20
2018-05-21T17:56:11.247Z,2.55
2018-05-21T17:58:38.744Z,2.50
2018-05-21T18:01:07.020Z,2.55
2018-05-21T18:03:35.273Z,2.50
2018-05-21T18:06:02.758Z,2.50
2018-05-21T18:08:31.024Z,2.42
2018-05-21T18:10:59.288Z,2.40
2018-05-21T18:13:26.875Z,2.72
2018-05-21T18:15:55.140Z,2.73
2018-05-21T18:18:23.411Z,2.42
2018-05-21T18:20:51.673Z,2.50
2018-05-21T18:23:19.992Z,2.12
2018-05-21T18:25:47.494Z,2.42
2018-05-21T18:28:15.012Z,2.50
2018-05-21T18:30:42.514Z,2.30
2018-05-21T18:33:09.999Z,2.30
2018-05-21T18:35:38.269Z,2.40
2018-05-21T18:38:05.883Z,2.37
2018-05-21T18:40:33.407Z,2.33
2018-05-21T18:43:01.683Z,2.07
2018-05-21T18:45:29.979Z,2.40
2018-05-21T18:47:57.479Z,2.40
2018-05-21T18:50:24.967Z,2.17
2018-05-21T18:52:53.235Z,2.30
2018-05-21T18:55:26.363Z,2.17
2018-05-21T18:57:53.863Z,2.20
2018-05-21T19:00:21.359Z,2.58
2018-05-21T19:02:48.924Z,2.75
2018-05-21T19:05:16.415Z,2.40
2018-05-21T19:07:43.914Z,2.00
2018-05-21T19:10:12.235Z,2.40
2018-05-21T19:12:39.727Z,2.30
2018-05-21T19:15:07.423Z,2.50
2018-05-21T19:17:34.845Z,2.22
2018-05-21T19:20:02.338Z,2.22
2018-05-21T19:22:30.619Z,2.62
2018-05-21T19:24:58.875Z,2.20
2018-05-21T19:27:26.451Z,2.35
2018-05-21T19:29:54.842Z,2.20
2018-05-21T19:32:22.348Z,2.47
2018-05-21T19:34:49.856Z,2.20
2018-05-21T19:37:17.358Z,2.20
2018-05-21T19:39:44.874Z,2.50
2018-05-21T19:42:12.427Z,2.20
2018-05-21T19:44:39.948Z,2.60
2018-05-21T19:47:07.436Z,2.22
2018-05-21T19:49:35.706Z,2.70
2018-05-21T19:52:03.966Z,2.20
2018-05-21T19:54:31.471Z,2.30
2018-05-21T19:56:58.983Z,2.30
2018-05-21T19:59:26.490Z,2.30
2018-05-21T20:01:54.002Z,2.30
2018-05-21T20:04:22.286Z,2.30
2018-05-21T20:06:50.575Z,2.40
2018-05-21T20:09:18.839Z,2.58
2018-05-21T20:11:47.131Z,2.45
2018-05-21T20:14:14.627Z,2.70
2018-05-21T20:16:42.150Z,3.20
2018-05-21T20:19:10.527Z,2.30
2018-05-21T20:21:37.981Z,2.50
2018-05-21T20:24:05.479Z,2.35
2018-05-21T20:26:33.007Z,2.30
2018-05-21T20:29:00.496Z,2.50
2018-05-21T20:31:28.094Z,2.60
2018-05-21T20:33:55.582Z,2.40
2018-05-21T20:36:23.094Z,2.47
2018-05-21T20:38:50.602Z,2.50
2018-05-21T20:41:18.112Z,2.60
2018-05-21T20:43:45.620Z,2.35
2018-05-21T20:46:13.109Z,2.70
2018-05-21T20:48:40.622Z,2.42
2018-05-21T20:51:08.884Z,2.90
2018-05-21T20:53:37.171Z,2.60
2018-05-21T20:56:05.463Z,2.92
2018-05-21T20:58:33.695Z,2.30
2018-05-21T21:01:01.208Z,3.00
2018-05-21T21:03:28.699Z,2.95
2018-05-21T21:05:56.212Z,2.95
2018-05-21T21:08:23.707Z,3.00
2018-05-21T21:10:51.219Z,2.60
2018-05-21T21:13:18.720Z,2.60
2018-05-21T21:15:46.246Z,2.50
2018-05-21T21:18:13.793Z,2.40
2018-05-21T21:20:41.344Z,2.70
2018-05-21T21:23:09.600Z,2.53
2018-05-21T21:25:37.854Z,3.22
2018-05-21T21:28:05.352Z,2.80
2018-05-21T21:30:32.846Z,2.78
2018-05-21T21:33:00.345Z,2.77
2018-05-21T21:35:27.953Z,2.78
2018-05-21T21:37:55.494Z,2.80
2018-05-21T21:40:23.005Z,2.50
2018-05-21T21:42:50.489Z,2.72
2018-05-21T21:45:18.767Z,2.80
2018-05-21T21:47:47.023Z,2.50
2018-05-21T21:50:14.597Z,3.40
2018-05-21T21:52:42.038Z,2.67
2018-05-21T21:55:09.538Z,2.80
2018-05-21T21:57:37.062Z,3.00
2018-05-21T22:00:06.068Z,3.17
2018-05-21T22:02:34.354Z,2.85
2018-05-21T22:05:02.637Z,2.80
2018-05-21T22:07:30.886Z,3.20
2018-05-21T22:09:58.384Z,2.90
2018-05-21T22:12:26.043Z,2.70
2018-05-21T22:14:53.550Z,2.70
2018-05-21T22:17:21.054Z,2.60
2018-05-21T22:19:48.617Z,2.90
2018-05-21T22:22:16.174Z,2.80
2018-05-21T22:24:43.738Z,2.80
2018-05-21T22:27:11.251Z,2.60
2018-05-21T22:29:38.746Z,2.90
2018-05-21T22:32:06.251Z,2.50
2018-05-21T22:34:33.751Z,2.80
2018-05-21T22:37:02.013Z,2.80
2018-05-21T22:39:30.282Z,3.00
2018-05-21T22:41:57.785Z,2.95
2018-05-21T22:44:25.311Z,2.80
2018-05-21T22:46:53.587Z,2.80
2018-05-21T22:49:21.862Z,2.80
2018-05-21T22:51:50.167Z,2.80
2018-05-21T22:54:29.711Z,2.47
2018-05-21T22:56:57.204Z,2.70
2018-05-21T22:59:24.695Z,2.60
2018-05-21T23:01:52.977Z,3.40
2018-05-21T23:04:21.273Z,3.00
2018-05-21T23:06:48.819Z,2.77
2018-05-21T23:09:17.110Z,2.50
2018-05-21T23:11:44.654Z,2.70
2018-05-21T23:14:12.919Z,2.50
2018-05-21T23:16:41.187Z,2.67
2018-05-21T23:19:09.482Z,3.00
2018-05-21T23:21:37.742Z,2.80
2018-05-21T23:24:05.322Z,3.00
2018-05-21T23:26:32.830Z,2.60
2018-05-21T23:29:00.338Z,2.60
2018-05-21T23:31:27.845Z,2.72
2018-05-21T23:33:55.334Z,2.80
2018-05-21T23:36:23.711Z,3.00
2018-05-21T23:38:51.968Z,2.80
2018-05-21T23:41:19.459Z,2.90
2018-05-21T23:43:47.740Z,2.70
2018-05-21T23:46:15.995Z,2.60
2018-05-21T23:48:43.489Z,2.43
2018-05-21T23:51:11.004Z,2.55
2018-05-21T23:53:38.510Z,2.75
2018-05-21T23:56:06.008Z,2.53
2018-05-21T23:58:33.510Z,3.00
